Time;durP1;ratioP1;P1;durP2;ratioP2;P2;SDS_P1;SDS_P2;PMS_P1;PMS_P2;Temp;Humidity;BMP_temperature;BMP_pressure;BME280_temperature;BME280_humidity;BME280_pressure;Samples;Min_cycle;Max_cycle;Signal;HPM_P1;HPM_P2
2024/03/25 00:01:55;;;;;;;7.25;2.20;;;6.80;99.90;;;;;;4930413;28;20157;-90
2024/03/25 00:04:22;;;;;;;8.15;3.13;;;6.80;99.90;;;;;;4950016;28;20038;-88
2024/03/25 00:06:49;;;;;;;7.97;2.30;;;6.80;99.90;;;;;;4980503;28;20129;-89
2024/03/25 00:09:15;;;;;;;9.82;2.78;;;6.80;99.90;;;;;;4949710;28;20075;-87
2024/03/25 00:11:44;;;;;;;8.55;2.70;;;6.70;99.90;;;;;;4961461;28;20027;-88
2024/03/25 00:14:10;;;;;;;8.93;2.20;;;6.70;99.90;;;;;;4930170;28;20038;-89
2024/03/25 00:16:36;;;;;;;7.47;1.75;;;6.70;99.90;;;;;;4962604;28;20109;-89
2024/03/25 00:19:02;;;;;;;9.65;2.20;;;6.70;99.90;;;;;;4978645;28;20097;-89
2024/03/25 00:21:28;;;;;;;11.10;2.10;;;6.60;99.90;;;;;;4960986;28;20459;-89
2024/03/25 00:23:56;;;;;;;5.47;1.80;;;6.60;99.90;;;;;;4978638;28;20027;-90
2024/03/25 00:26:23;;;;;;;6.90;1.70;;;6.60;99.90;;;;;;4978701;28;20528;-91
2024/03/25 00:28:48;;;;;;;8.15;2.40;;;6.60;99.90;;;;;;4929588;28;20074;-88
2024/03/25 00:31:14;;;;;;;8.80;2.00;;;6.60;99.90;;;;;;4956749;28;20086;-89
2024/03/25 00:33:40;;;;;;;8.95;2.58;;;6.50;99.90;;;;;;4959245;28;20094;-88
2024/03/25 00:36:06;;;;;;;8.45;1.98;;;6.50;99.90;;;;;;4995129;28;20023;-88
2024/03/25 00:38:31;;;;;;;6.63;2.20;;;6.50;99.90;;;;;;4945244;28;20534;-88
2024/03/25 00:40:57;;;;;;;11.45;3.42;;;6.50;99.90;;;;;;4961919;28;20411;-88
2024/03/25 00:43:23;;;;;;;11.48;2.92;;;6.50;99.90;;;;;;4929730;28;20073;-84
2024/03/25 00:45:49;;;;;;;8.13;2.38;;;6.50;99.90;;;;;;4936135;28;20795;-92
2024/03/25 00:48:14;;;;;;;13.30;2.75;;;6.50;99.90;;;;;;4977622;28;20070;-88
2024/03/25 00:50:40;;;;;;;10.13;2.72;;;6.50;99.90;;;;;;4984156;28;20035;-87
2024/03/25 00:53:07;;;;;;;13.85;2.53;;;6.50;99.90;;;;;;4984455;28;20049;-87
2024/03/25 00:55:33;;;;;;;8.73;2.40;;;6.50;99.90;;;;;;4982287;28;20070;-87
2024/03/25 00:57:59;;;;;;;10.20;2.65;;;6.50;99.90;;;;;;4963480;28;20379;-89
2024/03/25 01:00:25;;;;;;;11.43;3.03;;;6.40;99.90;;;;;;4964559;28;20077;-90
2024/03/25 01:02:50;;;;;;;8.68;2.45;;;6.40;99.90;;;;;;4966695;28;20069;-89
2024/03/25 01:05:16;;;;;;;8.25;2.25;;;6.40;99.90;;;;;;4946610;28;20089;-89
2024/03/25 01:07:41;;;;;;;6.85;2.55;;;6.40;99.90;;;;;;4977574;28;20054;-90
2024/03/25 01:10:07;;;;;;;9.02;2.67;;;6.40;99.90;;;;;;4943995;28;20125;-88
2024/03/25 01:12:33;;;;;;;9.10;2.00;;;6.40;99.90;;;;;;4977455;28;20039;-85
2024/03/25 01:14:58;;;;;;;9.13;2.70;;;6.40;99.90;;;;;;4954998;28;20023;-89
2024/03/25 01:17:24;;;;;;;8.25;2.45;;;6.40;99.90;;;;;;4932573;28;20519;-89
2024/03/25 01:19:50;;;;;;;9.18;2.22;;;6.30;99.90;;;;;;4960229;28;20019;-89
2024/03/25 01:22:15;;;;;;;8.90;3.25;;;6.30;99.90;;;;;;4944039;28;20364;-90
2024/03/25 01:24:41;;;;;;;7.47;2.70;;;6.30;99.90;;;;;;4977111;28;20033;-89
2024/03/25 01:27:07;;;;;;;12.95;2.58;;;6.30;99.90;;;;;;4944489;28;20046;-89
2024/03/25 01:29:32;;;;;;;14.98;3.42;;;6.30;99.90;;;;;;4940997;29;20095;-89
2024/03/25 01:31:59;;;;;;;10.98;3.38;;;6.20;99.90;;;;;;4925182;29;20429;-90
2024/03/25 01:34:27;;;;;;;10.85;2.65;;;6.20;99.90;;;;;;4937331;28;20491;-89
2024/03/25 01:36:53;;;;;;;10.18;2.60;;;6.20;99.90;;;;;;4963520;28;20031;-89
2024/03/25 01:39:19;;;;;;;15.23;3.55;;;6.20;99.90;;;;;;4979586;28;20034;-89
2024/03/25 01:41:45;;;;;;;10.73;3.05;;;6.10;99.90;;;;;;4954954;28;20353;-89
2024/03/25 01:44:11;;;;;;;18.02;3.20;;;6.10;99.90;;;;;;4960160;28;20038;-88
2024/03/25 01:46:37;;;;;;;9.18;2.67;;;6.10;99.90;;;;;;4959780;28;20039;-88
2024/03/25 01:49:03;;;;;;;13.38;2.60;;;6.10;99.90;;;;;;4977306;28;20027;-89
2024/03/25 01:51:30;;;;;;;10.68;2.88;;;6.10;99.90;;;;;;4959944;28;20043;-88
2024/03/25 01:53:56;;;;;;;10.25;3.13;;;6.00;99.90;;;;;;4927780;28;20054;-88
2024/03/25 01:56:24;;;;;;;11.23;2.90;;;6.00;99.90;;;;;;4944240;28;20035;-90
2024/03/25 01:58:50;;;;;;;13.07;3.42;;;6.00;99.90;;;;;;4959725;28;20110;-90
2024/03/25 02:01:16;;;;;;;8.75;3.40;;;6.00;99.90;;;;;;4959610;28;20050;-89
2024/03/25 02:03:42;;;;;;;11.00;2.67;;;6.00;99.90;;;;;;4959523;28;20034;-89
2024/03/25 02:06:13;;;;;;;9.93;2.90;;;5.90;99.90;;;;;;4959469;28;20023;-89
2024/03/25 02:08:43;;;;;;;10.60;3.00;;;5.90;99.90;;;;;;4965769;28;20030;-86
2024/03/25 02:11:10;;;;;;;9.35;2.83;;;5.90;99.90;;;;;;4987387;28;20019;-90
2024/03/25 02:13:37;;;;;;;9.48;2.47;;;5.90;99.90;;;;;;4977394;28;20049;-90
2024/03/25 02:16:04;;;;;;;11.77;2.53;;;5.90;99.90;;;;;;4982732;28;20082;-84
2024/03/25 02:18:30;;;;;;;8.85;3.10;;;5.80;99.90;;;;;;5001016;28;20038;-89
2024/03/25 02:20:59;;;;;;;9.10;2.70;;;5.80;99.90;;;;;;4963195;28;20030;-88
2024/03/25 02:23:26;;;;;;;9.90;3.10;;;5.80;99.90;;;;;;4962442;28;20026;-88
2024/03/25 02:25:53;;;;;;;12.23;2.92;;;5.80;99.90;;;;;;4927833;28;20119;-90
2024/03/25 02:28:22;;;;;;;10.20;3.00;;;5.80;99.90;;;;;;4976070;28;20066;-89
2024/03/25 02:30:48;;;;;;;12.20;3.45;;;5.70;99.90;;;;;;4944035;28;20031;-88
2024/03/25 02:33:14;;;;;;;10.90;3.28;;;5.80;99.90;;;;;;4959273;28;20046;-90
2024/03/25 02:35:41;;;;;;;9.35;2.72;;;5.70;99.90;;;;;;4961399;28;20066;-90
2024/03/25 02:38:08;;;;;;;11.73;3.45;;;5.70;99.90;;;;;;4976014;28;20523;-89
2024/03/25 02:40:35;;;;;;;9.73;3.08;;;5.70;99.90;;;;;;4943196;28;20023;-88
2024/03/25 02:43:00;;;;;;;11.23;3.38;;;5.70;99.90;;;;;;4958457;28;20398;-89
2024/03/25 02:45:26;;;;;;;9.32;3.15;;;5.60;99.90;;;;;;4943141;28;20122;-88
2024/03/25 02:47:52;;;;;;;11.88;3.25;;;5.60;99.90;;;;;;4958532;28;20031;-89
2024/03/25 02:50:18;;;;;;;12.40;3.13;;;5.60;99.90;;;;;;4958619;28;20037;-89
2024/03/25 02:52:44;;;;;;;10.80;2.75;;;5.60;99.90;;;;;;4964398;28;20038;-82
2024/03/25 02:55:10;;;;;;;13.98;3.03;;;5.60;99.90;;;;;;4932834;28;20142;-88
2024/03/25 02:57:35;;;;;;;11.00;3.70;;;5.60;99.90;;;;;;4958854;28;20031;-88
2024/03/25 03:00:01;;;;;;;11.85;3.08;;;5.60;99.90;;;;;;4958520;28;20038;-88
2024/03/25 03:02:26;;;;;;;8.95;3.10;;;5.50;99.90;;;;;;4955685;28;20083;-88
2024/03/25 03:04:52;;;;;;;12.15;2.90;;;5.50;99.90;;;;;;4946340;28;20561;-89
2024/03/25 03:07:18;;;;;;;11.63;2.65;;;5.50;99.90;;;;;;4939465;29;20032;-88
2024/03/25 03:09:43;;;;;;;9.85;3.00;;;5.50;99.90;;;;;;4959764;28;20089;-88
2024/03/25 03:12:09;;;;;;;9.98;3.15;;;5.50;99.90;;;;;;4954023;28;20031;-89
2024/03/25 03:14:35;;;;;;;13.48;3.08;;;5.50;99.90;;;;;;4975843;28;20030;-88
2024/03/25 03:17:04;;;;;;;10.60;3.05;;;5.40;99.90;;;;;;4942666;28;20038;-89
2024/03/25 03:19:31;;;;;;;12.05;2.95;;;5.50;99.90;;;;;;4958536;28;20030;-88
2024/03/25 03:21:57;;;;;;;11.68;3.17;;;5.50;99.90;;;;;;4942738;28;20031;-88
2024/03/25 03:24:22;;;;;;;6.82;2.83;;;5.40;99.90;;;;;;4983888;28;20045;-87
2024/03/25 03:26:48;;;;;;;12.13;3.03;;;5.40;99.90;;;;;;4944783;28;20042;-88
2024/03/25 03:29:14;;;;;;;14.90;3.30;;;5.40;99.90;;;;;;4959155;28;20089;-87
2024/03/25 03:31:40;;;;;;;9.93;3.30;;;5.40;99.90;;;;;;4943017;28;20023;-89
2024/03/25 03:34:06;;;;;;;13.40;4.00;;;5.40;99.90;;;;;;4936905;28;20042;-85
2024/03/25 03:36:31;;;;;;;8.63;3.00;;;5.40;99.90;;;;;;4965992;28;20011;-89
2024/03/25 03:38:57;;;;;;;8.82;2.67;;;5.30;99.90;;;;;;4985225;28;20017;-86
2024/03/25 03:41:23;;;;;;;7.93;3.15;;;5.30;99.90;;;;;;4998914;28;20035;-88
2024/03/25 03:43:48;;;;;;;7.35;3.25;;;5.30;99.90;;;;;;4964913;28;20042;-88
2024/03/25 03:46:14;;;;;;;8.30;3.22;;;5.20;99.90;;;;;;4981083;28;20065;-86
2024/03/25 03:48:40;;;;;;;11.45;3.30;;;5.10;99.90;;;;;;4980425;28;20030;-87
2024/03/25 03:51:06;;;;;;;11.10;3.67;;;5.10;99.90;;;;;;4966520;28;20037;-87
2024/03/25 03:53:33;;;;;;;8.35;3.35;;;5.10;99.90;;;;;;4981066;28;20080;-87
2024/03/25 03:56:01;;;;;;;12.57;4.38;;;5.10;99.90;;;;;;4980632;28;20053;-87
2024/03/25 03:58:28;;;;;;;8.63;3.30;;;5.00;99.90;;;;;;4965689;28;20030;-87
2024/03/25 04:00:53;;;;;;;11.80;3.28;;;5.10;99.90;;;;;;4966261;28;20481;-87
2024/03/25 04:03:19;;;;;;;6.82;3.17;;;5.00;99.90;;;;;;4964933;28;20034;-88
2024/03/25 04:05:45;;;;;;;6.85;3.15;;;5.00;99.90;;;;;;4980629;28;20534;-85
2024/03/25 04:08:11;;;;;;;8.68;3.42;;;5.00;99.90;;;;;;4965153;28;20050;-87
2024/03/25 04:10:37;;;;;;;7.70;3.15;;;5.00;99.90;;;;;;4948669;28;20026;-88
2024/03/25 04:13:11;;;;;;;10.85;3.70;;;5.00;99.90;;;;;;4964471;28;20133;-88
2024/03/25 04:15:42;;;;;;;11.35;3.92;;;5.00;99.90;;;;;;4985570;28;20058;-87
2024/03/25 04:18:08;;;;;;;10.80;3.70;;;4.90;99.90;;;;;;4974555;28;20090;-87
2024/03/25 04:20:41;;;;;;;12.65;4.10;;;4.90;99.90;;;;;;4988350;28;20409;-88
2024/03/25 04:23:07;;;;;;;13.02;3.95;;;4.90;99.90;;;;;;5000470;28;20033;-86
2024/03/25 04:25:34;;;;;;;11.15;3.42;;;4.90;99.90;;;;;;4980667;28;20030;-87
2024/03/25 04:27:59;;;;;;;11.75;3.97;;;4.90;99.90;;;;;;4964799;28;20038;-87
2024/03/25 04:30:26;;;;;;;7.18;3.58;;;4.90;99.90;;;;;;4965014;28;20027;-86
2024/03/25 04:32:52;;;;;;;12.68;3.88;;;4.90;99.90;;;;;;4997922;28;20049;-87
2024/03/25 04:35:17;;;;;;;7.75;4.00;;;4.90;99.90;;;;;;4980849;28;20034;-86
2024/03/25 04:37:43;;;;;;;6.80;2.92;;;4.90;99.90;;;;;;4980696;28;20117;-86
2024/03/25 04:40:10;;;;;;;9.43;3.72;;;4.80;99.90;;;;;;4948830;28;20085;-88
2024/03/25 04:42:36;;;;;;;9.35;3.78;;;4.80;99.90;;;;;;4965765;28;20475;-87
2024/03/25 04:45:01;;;;;;;12.40;3.75;;;4.90;99.90;;;;;;4970485;28;20069;-86
2024/03/25 04:47:27;;;;;;;13.23;3.75;;;4.90;99.90;;;;;;4998332;28;20026;-86
2024/03/25 04:49:53;;;;;;;12.85;3.72;;;4.90;99.90;;;;;;5018748;28;20017;-85
2024/03/25 04:52:18;;;;;;;11.15;3.60;;;4.90;99.90;;;;;;4985931;28;20061;-86
2024/03/25 04:54:44;;;;;;;8.48;3.78;;;4.90;99.90;;;;;;5003066;28;20073;-87
2024/03/25 04:57:10;;;;;;;12.75;3.60;;;4.90;99.90;;;;;;5005920;28;20117;-86
2024/03/25 04:59:35;;;;;;;11.73;3.60;;;4.90;99.90;;;;;;4967584;28;20041;-87
2024/03/25 05:02:02;;;;;;;12.75;3.72;;;5.00;99.90;;;;;;5000907;28;20541;-87
2024/03/25 05:04:28;;;;;;;9.20;4.25;;;5.00;99.90;;;;;;4982904;28;20026;-87
2024/03/25 05:06:53;;;;;;;11.88;4.30;;;5.00;99.90;;;;;;4980435;28;20030;-86
2024/03/25 05:09:19;;;;;;;11.07;3.78;;;4.90;99.90;;;;;;4980167;28;20396;-88
2024/03/25 05:11:45;;;;;;;9.48;3.50;;;4.90;99.90;;;;;;4979683;28;20437;-87
2024/03/25 05:14:11;;;;;;;11.02;3.95;;;5.00;99.90;;;;;;4979461;28;20042;-87
2024/03/25 05:16:37;;;;;;;12.43;3.95;;;4.90;99.90;;;;;;4979695;28;20023;-88
2024/03/25 05:19:03;;;;;;;11.45;4.13;;;5.00;99.90;;;;;;4963540;28;20534;-86
2024/03/25 05:21:30;;;;;;;9.63;3.83;;;5.00;99.90;;;;;;4963490;28;20097;-86
2024/03/25 05:23:56;;;;;;;8.77;3.70;;;5.00;99.90;;;;;;4962951;28;20493;-86
2024/03/25 05:26:22;;;;;;;8.88;3.53;;;5.00;99.90;;;;;;4946815;28;20113;-86
2024/03/25 05:28:52;;;;;;;12.38;3.97;;;5.10;99.90;;;;;;4979097;28;20072;-87
2024/03/25 05:31:18;;;;;;;11.98;3.65;;;5.00;99.90;;;;;;4963309;28;20034;-86
2024/03/25 05:33:44;;;;;;;12.52;3.55;;;5.00;99.90;;;;;;4978989;28;20117;-85
2024/03/25 05:36:10;;;;;;;10.00;3.70;;;5.10;99.90;;;;;;4962674;28;20033;-85
2024/03/25 05:38:35;;;;;;;13.82;4.05;;;5.10;99.90;;;;;;4961850;28;20573;-85
2024/03/25 05:41:02;;;;;;;11.77;4.68;;;5.10;99.90;;;;;;4962337;28;20038;-84
2024/03/25 05:43:28;;;;;;;8.52;3.50;;;5.10;99.90;;;;;;4962566;28;20034;-84
2024/03/25 05:45:54;;;;;;;11.60;3.95;;;5.10;99.90;;;;;;4946366;28;20037;-84
2024/03/25 05:48:20;;;;;;;9.30;3.90;;;5.10;99.90;;;;;;4977946;28;20026;-84
2024/03/25 05:50:46;;;;;;;11.52;4.13;;;5.10;99.90;;;;;;4962206;28;20084;-84
2024/03/25 05:53:12;;;;;;;14.27;3.47;;;5.10;99.90;;;;;;4962235;28;20486;-85
2024/03/25 05:55:38;;;;;;;12.07;3.72;;;5.20;99.90;;;;;;4978233;28;20054;-86
2024/03/25 05:58:04;;;;;;;10.25;3.50;;;5.10;99.90;;;;;;4995404;28;20029;-85
2024/03/25 06:00:31;;;;;;;9.25;3.33;;;5.20;99.90;;;;;;4945562;28;20109;-85
2024/03/25 06:02:57;;;;;;;9.52;3.35;;;5.20;99.90;;;;;;4962447;28;20026;-84
2024/03/25 06:05:23;;;;;;;11.02;2.85;;;5.30;99.90;;;;;;4995614;28;20030;-85
2024/03/25 06:07:48;;;;;;;11.23;3.35;;;5.30;99.90;;;;;;4996066;28;20038;-87
2024/03/25 06:10:14;;;;;;;11.98;3.60;;;5.30;99.90;;;;;;4979796;28;20022;-86
2024/03/25 06:12:40;;;;;;;11.02;3.35;;;5.30;99.90;;;;;;4982319;28;20463;-88
2024/03/25 06:15:07;;;;;;;9.00;3.53;;;5.30;99.90;;;;;;4986002;28;20014;-85
2024/03/25 06:17:33;;;;;;;9.27;2.90;;;5.40;99.90;;;;;;4985872;28;20022;-85
2024/03/25 06:19:58;;;;;;;12.23;3.42;;;5.40;99.90;;;;;;4985998;28;20094;-84
2024/03/25 06:22:24;;;;;;;9.60;2.88;;;5.40;99.90;;;;;;4985228;28;20006;-84
2024/03/25 06:24:53;;;;;;;8.77;2.83;;;5.40;99.90;;;;;;4982818;28;20506;-86
2024/03/25 06:27:19;;;;;;;10.95;3.40;;;5.40;99.90;;;;;;4995410;28;20093;-84
2024/03/25 06:29:46;;;;;;;13.80;3.85;;;5.40;99.90;;;;;;4961648;28;20030;-84
2024/03/25 06:34:59;;;;;;;10.82;3.50;;;5.40;99.90;;;;;;4980347;28;20057;-84
2024/03/25 06:37:25;;;;;;;11.75;3.80;;;5.50;99.90;;;;;;4977845;28;20022;-84
2024/03/25 06:39:51;;;;;;;10.23;3.88;;;5.50;99.90;;;;;;4961358;28;20029;-84
2024/03/25 06:42:16;;;;;;;7.70;3.10;;;5.50;99.90;;;;;;4977745;28;20113;-85
2024/03/25 06:44:43;;;;;;;7.65;3.30;;;5.50;99.90;;;;;;4961596;28;20026;-84
2024/03/25 06:47:08;;;;;;;14.07;4.20;;;5.60;99.90;;;;;;4977062;28;20376;-85
2024/03/25 06:49:34;;;;;;;17.17;4.22;;;5.60;99.90;;;;;;4961408;28;20037;-84
2024/03/25 06:52:00;;;;;;;9.93;3.60;;;5.60;99.90;;;;;;4978063;28;20426;-84
2024/03/25 06:54:26;;;;;;;14.10;4.00;;;5.60;99.90;;;;;;4994209;28;20088;-84
2024/03/25 06:56:51;;;;;;;11.55;3.42;;;5.70;99.90;;;;;;4961369;28;20034;-84
2024/03/25 06:59:17;;;;;;;11.93;3.42;;;5.70;99.90;;;;;;4976962;28;20037;-84
2024/03/25 07:01:43;;;;;;;16.10;3.95;;;5.80;99.90;;;;;;4977448;28;20034;-83
2024/03/25 07:04:08;;;;;;;13.23;3.72;;;5.80;99.90;;;;;;4977228;28;20034;-83
2024/03/25 07:06:34;;;;;;;12.18;3.50;;;5.90;99.90;;;;;;4977418;28;20026;-84
2024/03/25 07:09:00;;;;;;;14.00;3.80;;;5.90;99.90;;;;;;4994822;28;20041;-84
2024/03/25 07:11:26;;;;;;;9.55;3.22;;;6.00;99.90;;;;;;4994187;28;20026;-85
2024/03/25 07:13:52;;;;;;;12.32;4.10;;;6.00;99.90;;;;;;4961690;28;20030;-84
2024/03/25 07:16:19;;;;;;;10.77;3.58;;;6.10;99.90;;;;;;4980288;28;20514;-86
2024/03/25 07:18:44;;;;;;;9.75;2.92;;;6.10;99.90;;;;;;4979544;28;20029;-85
2024/03/25 07:21:10;;;;;;;13.10;3.60;;;6.20;99.90;;;;;;4963734;28;20027;-84
2024/03/25 07:23:36;;;;;;;11.68;3.55;;;6.30;99.90;;;;;;4962387;28;20537;-84
2024/03/25 07:26:03;;;;;;;11.00;3.55;;;6.30;99.90;;;;;;4962263;28;20385;-84
2024/03/25 07:28:29;;;;;;;12.65;4.07;;;6.40;99.90;;;;;;4977589;28;20038;-85
2024/03/25 07:30:54;;;;;;;10.05;3.65;;;6.40;99.90;;;;;;4961860;28;20037;-85
2024/03/25 07:33:23;;;;;;;8.57;4.00;;;6.50;99.90;;;;;;4980558;28;20042;-84
2024/03/25 07:35:48;;;;;;;14.95;3.92;;;6.60;99.90;;;;;;4963239;28;20045;-84
2024/03/25 07:38:14;;;;;;;12.90;4.30;;;6.60;99.90;;;;;;4990290;28;20034;-85
2024/03/25 07:40:39;;;;;;;10.07;3.35;;;6.70;99.90;;;;;;5000014;28;20097;-84
2024/03/25 07:43:05;;;;;;;12.13;4.03;;;6.70;99.90;;;;;;4985346;28;20057;-84
2024/03/25 07:45:31;;;;;;;8.73;3.42;;;6.80;99.90;;;;;;4985485;28;20038;-86
2024/03/25 07:47:57;;;;;;;11.82;3.38;;;6.90;99.90;;;;;;4985639;28;20041;-84
2024/03/25 07:50:22;;;;;;;9.10;3.75;;;7.00;99.90;;;;;;4993543;28;20457;-84
2024/03/25 07:52:48;;;;;;;11.57;3.53;;;7.00;99.90;;;;;;4950920;28;20470;-86
2024/03/25 07:55:15;;;;;;;11.65;4.07;;;7.10;99.90;;;;;;4996992;28;20046;-85
2024/03/25 07:57:40;;;;;;;10.50;4.03;;;7.20;99.90;;;;;;4978231;28;20022;-84
2024/03/25 08:00:08;;;;;;;12.45;4.07;;;7.20;99.90;;;;;;4977817;28;20184;-83
2024/03/25 08:02:34;;;;;;;9.63;4.43;;;7.30;99.90;;;;;;4945386;28;20027;-85
2024/03/25 08:05:00;;;;;;;10.07;4.45;;;7.40;99.90;;;;;;4960654;28;20038;-85
2024/03/25 08:07:26;;;;;;;11.15;3.80;;;7.40;99.90;;;;;;4993663;28;20033;-84
2024/03/25 08:09:51;;;;;;;10.40;3.28;;;7.50;99.90;;;;;;4960645;28;20145;-84
2024/03/25 08:12:17;;;;;;;11.23;3.60;;;7.60;99.90;;;;;;4960646;28;20040;-85
2024/03/25 08:14:43;;;;;;;9.75;3.75;;;7.60;99.90;;;;;;4993708;28;20105;-86
2024/03/25 08:17:11;;;;;;;12.27;3.83;;;7.70;99.90;;;;;;4960802;28;20034;-84
2024/03/25 08:19:37;;;;;;;13.30;3.95;;;7.80;99.90;;;;;;4976441;28;20027;-84
2024/03/25 08:22:04;;;;;;;13.57;4.53;;;7.80;99.90;;;;;;4960493;28;20549;-85
2024/03/25 08:24:29;;;;;;;8.27;3.85;;;7.90;99.90;;;;;;4979088;28;20382;-83
2024/03/25 08:26:55;;;;;;;10.00;3.90;;;7.90;99.90;;;;;;4963324;28;20085;-84
2024/03/25 08:29:21;;;;;;;13.40;4.30;;;8.00;99.90;;;;;;4979229;28;20109;-84
2024/03/25 08:31:46;;;;;;;12.80;3.70;;;8.10;99.90;;;;;;4947867;28;20034;-84
2024/03/25 08:34:12;;;;;;;15.18;4.32;;;8.20;99.90;;;;;;4979690;28;20118;-85
2024/03/25 08:36:38;;;;;;;11.50;4.18;;;8.30;99.90;;;;;;4963466;28;20498;-84
2024/03/25 08:39:04;;;;;;;12.63;4.13;;;8.30;99.90;;;;;;4963579;28;20121;-86
2024/03/25 08:41:33;;;;;;;8.40;3.80;;;8.40;99.90;;;;;;4979599;28;20069;-85
2024/03/25 08:43:58;;;;;;;11.48;3.95;;;8.50;99.90;;;;;;4979761;28;20030;-84
2024/03/25 08:46:24;;;;;;;10.15;4.53;;;8.50;99.90;;;;;;4947502;28;20134;-84
2024/03/25 08:48:53;;;;;;;14.43;4.10;;;8.60;99.90;;;;;;4963462;28;20034;-86
2024/03/25 08:54:04;;;;;;;10.82;3.38;;;8.70;99.90;;;;;;4996648;28;20050;-85
2024/03/25 08:56:30;;;;;;;9.90;3.50;;;8.80;99.90;;;;;;4963713;28;20042;-85
2024/03/25 08:58:57;;;;;;;11.60;4.05;;;8.80;99.90;;;;;;4980134;28;20030;-85
2024/03/25 09:01:24;;;;;;;11.35;4.00;;;8.80;99.90;;;;;;4979546;28;20030;-85
2024/03/25 09:03:52;;;;;;;9.50;3.08;;;8.90;99.90;;;;;;4980573;28;20030;-85
2024/03/25 09:06:18;;;;;;;14.13;3.63;;;8.90;99.90;;;;;;4987204;28;20011;-85
2024/03/25 09:11:28;;;;;;;11.23;3.03;;;9.10;99.90;;;;;;5005702;28;20045;-84
2024/03/25 09:13:54;;;;;;;12.40;3.28;;;9.10;99.90;;;;;;4986633;28;20045;-85
2024/03/25 09:16:22;;;;;;;7.68;3.03;;;9.20;99.90;;;;;;4952778;28;20027;-85
2024/03/25 09:18:48;;;;;;;13.27;3.50;;;9.30;99.90;;;;;;4963518;28;20480;-85
2024/03/25 09:21:14;;;;;;;14.10;3.88;;;9.40;99.90;;;;;;4947199;28;20058;-85
2024/03/25 09:23:42;;;;;;;10.82;4.18;;;9.50;99.90;;;;;;4962893;28;20034;-85
2024/03/25 09:26:11;;;;;;;9.77;3.13;;;9.60;99.90;;;;;;4978565;28;20117;-84
2024/03/25 09:28:36;;;;;;;10.20;3.35;;;9.70;99.90;;;;;;4962932;28;20018;-84
2024/03/25 09:31:02;;;;;;;9.15;2.95;;;9.70;99.90;;;;;;4962423;28;20096;-84
2024/03/25 09:33:30;;;;;;;9.52;2.58;;;9.80;99.90;;;;;;4962294;28;20514;-84
2024/03/25 09:35:56;;;;;;;9.48;3.05;;;9.80;99.90;;;;;;4977501;28;20536;-85
2024/03/25 09:38:21;;;;;;;11.93;3.20;;;9.80;99.90;;;;;;4995784;28;20083;-84
2024/03/25 09:40:47;;;;;;;9.88;3.33;;;9.90;99.90;;;;;;4962513;28;20030;-85
2024/03/25 09:43:33;;;;;;;13.52;3.85;;;9.90;99.90;;;;;;4962034;28;20056;-84
2024/03/25 09:46:00;;;;;;;10.52;3.38;;;10.00;99.90;;;;;;4995772;28;20038;-84
2024/03/25 09:48:25;;;;;;;11.65;3.72;;;10.10;99.90;;;;;;4946399;28;20026;-85
2024/03/25 09:50:52;;;;;;;11.23;3.33;;;10.10;99.90;;;;;;4977889;28;20368;-85
2024/03/25 09:53:18;;;;;;;11.07;3.53;;;10.10;99.90;;;;;;4978189;28;20080;-84
2024/03/25 09:55:47;;;;;;;13.82;4.03;;;10.10;99.90;;;;;;4977540;28;20054;-85
2024/03/25 09:58:14;;;;;;;11.38;3.63;;;10.20;99.90;;;;;;4977970;28;20031;-84
2024/03/25 10:00:41;;;;;;;10.02;4.10;;;10.20;99.90;;;;;;4962000;28;20030;-85
2024/03/25 10:03:06;;;;;;;8.43;3.17;;;10.30;99.90;;;;;;4995412;28;20037;-84
2024/03/25 10:05:32;;;;;;;12.73;3.28;;;10.30;99.90;;;;;;4977979;28;20042;-85
2024/03/25 10:07:58;;;;;;;7.85;2.72;;;10.40;99.90;;;;;;4995331;28;20149;-85
2024/03/25 10:10:24;;;;;;;7.55;3.30;;;10.50;99.90;;;;;;4962219;28;20038;-84
2024/03/25 10:12:50;;;;;;;9.95;3.35;;;10.50;99.90;;;;;;4995380;28;20038;-84
2024/03/25 10:15:18;;;;;;;10.25;3.03;;;10.60;99.90;;;;;;4978348;28;20034;-84
2024/03/25 10:17:44;;;;;;;12.32;3.25;;;10.60;99.90;;;;;;4977750;28;20027;-83
2024/03/25 10:20:16;;;;;;;9.88;3.30;;;10.70;99.90;;;;;;4978469;28;20081;-84
2024/03/25 10:22:43;;;;;;;7.90;3.45;;;10.80;99.90;;;;;;4962252;28;20030;-84
2024/03/25 10:25:23;;;;;;;6.72;2.55;;;10.90;99.90;;;;;;4978053;28;20122;-84
2024/03/25 10:27:59;;;;;;;9.82;2.72;;;10.90;99.90;;;;;;4962179;28;20065;-84
2024/03/25 10:30:26;;;;;;;8.52;2.95;;;11.00;99.90;;;;;;4979664;28;20090;-84
2024/03/25 10:33:03;;;;;;;10.43;2.70;;;11.10;99.90;;;;;;4978610;28;20061;-83
2024/03/25 10:35:33;;;;;;;9.10;2.47;;;11.30;99.90;;;;;;4981944;28;20038;-84
2024/03/25 10:38:07;;;;;;;10.90;2.97;;;11.30;99.90;;;;;;5000239;28;20026;-84
2024/03/25 10:40:34;;;;;;;10.02;2.78;;;11.40;99.90;;;;;;4986840;28;20033;-83
2024/03/25 10:43:13;;;;;;;10.50;2.70;;;11.50;99.90;;;;;;5002026;28;20030;-84
2024/03/25 10:45:44;;;;;;;12.80;2.88;;;11.60;99.90;;;;;;4998897;28;20030;-85
2024/03/25 10:48:19;;;;;;;6.90;2.70;;;11.70;99.90;;;;;;4978068;28;20030;-84
2024/03/25 10:50:50;;;;;;;6.63;2.45;;;11.70;99.90;;;;;;4995177;28;20018;-84
2024/03/25 10:53:18;;;;;;;7.57;2.43;;;11.70;99.90;;;;;;4994481;28;20034;-85
2024/03/25 10:55:50;;;;;;;6.57;2.45;;;11.80;99.90;;;;;;4976888;28;20097;-84
2024/03/25 10:58:16;;;;;;;7.40;2.63;;;11.80;99.90;;;;;;4995024;28;20026;-85
2024/03/25 11:00:43;;;;;;;11.77;2.85;;;11.90;99.90;;;;;;4961114;28;20390;-85
2024/03/25 11:03:09;;;;;;;6.85;2.83;;;11.90;99.90;;;;;;4994654;28;20037;-84
2024/03/25 11:05:36;;;;;;;6.07;2.17;;;11.90;99.90;;;;;;4977188;28;20030;-83
2024/03/25 11:08:15;;;;;;;8.07;2.58;;;11.90;99.90;;;;;;4945668;28;20035;-84
2024/03/25 11:10:46;;;;;;;5.68;2.30;;;12.00;99.90;;;;;;4962492;28;20050;-83
2024/03/25 11:13:18;;;;;;;8.00;2.58;;;12.00;99.90;;;;;;4978182;28;20066;-84
2024/03/25 11:15:45;;;;;;;7.88;2.80;;;12.10;99.90;;;;;;4978693;28;20110;-83
2024/03/25 11:18:16;;;;;;;6.30;2.45;;;12.10;99.90;;;;;;4980940;28;20034;-84
2024/03/25 11:20:42;;;;;;;7.45;2.30;;;12.10;99.90;;;;;;4963703;28;20026;-84
2024/03/25 11:23:14;;;;;;;7.75;2.63;;;12.10;99.90;;;;;;4979118;28;20053;-84
2024/03/25 11:25:41;;;;;;;8.27;2.60;;;12.10;99.90;;;;;;4962631;28;20022;-84
2024/03/25 11:28:09;;;;;;;7.00;2.40;;;12.10;99.90;;;;;;4980142;28;20113;-84
2024/03/25 11:30:36;;;;;;;8.05;2.78;;;12.10;99.90;;;;;;4961686;28;20463;-84
2024/03/25 11:33:04;;;;;;;8.13;2.40;;;12.10;99.90;;;;;;4994373;28;20038;-84
2024/03/25 11:35:37;;;;;;;10.80;3.00;;;12.00;99.90;;;;;;4979099;28;20031;-84
2024/03/25 11:38:04;;;;;;;8.07;3.00;;;12.00;99.90;;;;;;4995928;28;20029;-85
2024/03/25 11:40:30;;;;;;;10.13;3.10;;;12.00;99.90;;;;;;4994020;28;20023;-84
2024/03/25 11:42:55;;;;;;;8.75;2.70;;;12.00;99.90;;;;;;4976395;28;20041;-83
2024/03/25 11:45:23;;;;;;;8.23;3.03;;;12.10;99.90;;;;;;4944487;28;20023;-84
2024/03/25 11:47:49;;;;;;;6.72;2.83;;;12.10;99.90;;;;;;4976553;28;20117;-84
2024/03/25 11:50:19;;;;;;;6.63;2.63;;;12.20;99.90;;;;;;4976205;28;20397;-84
2024/03/25 11:52:46;;;;;;;7.00;2.63;;;12.20;99.90;;;;;;4976561;28;20027;-84
2024/03/25 11:55:19;;;;;;;6.68;2.75;;;12.20;99.90;;;;;;4960876;28;20125;-84
2024/03/25 11:57:45;;;;;;;7.97;2.85;;;12.30;99.90;;;;;;4994382;28;20029;-84
2024/03/25 12:00:14;;;;;;;5.03;3.10;;;12.30;99.90;;;;;;4980508;28;20057;-84
2024/03/25 12:02:44;;;;;;;6.53;2.55;;;12.30;99.90;;;;;;4964883;28;20053;-85
2024/03/25 12:05:11;;;;;;;7.43;2.70;;;12.40;99.90;;;;;;4966386;28;20103;-84
2024/03/25 12:07:36;;;;;;;5.60;2.58;;;12.40;99.90;;;;;;4968316;28;20022;-84
2024/03/25 12:12:47;;;;;;;8.05;2.90;;;12.40;99.90;;;;;;4993657;28;20073;-83
2024/03/25 12:15:13;;;;;;;5.05;2.55;;;12.50;99.90;;;;;;5004737;28;20018;-83
2024/03/25 12:17:39;;;;;;;7.78;2.85;;;12.60;99.90;;;;;;4998240;28;20036;-84
2024/03/25 12:20:10;;;;;;;4.85;2.38;;;12.60;99.90;;;;;;4969526;28;20489;-84
2024/03/25 12:22:36;;;;;;;6.35;2.90;;;12.60;99.90;;;;;;4964427;28;20109;-85
2024/03/25 12:25:05;;;;;;;7.22;3.05;;;12.60;99.90;;;;;;4963888;28;20033;-83
2024/03/25 12:27:36;;;;;;;6.47;2.28;;;12.60;99.90;;;;;;4980253;28;20018;-83
2024/03/25 12:30:04;;;;;;;;;;;12.50;99.90;;;;;;4979826;28;20026;-84
2024/03/25 12:32:37;;;;;;;6.95;2.90;;;12.60;99.90;;;;;;4978932;28;20334;-84
2024/03/25 12:35:12;;;;;;;6.00;2.45;;;12.60;99.90;;;;;;4996047;28;20050;-84
2024/03/25 12:37:42;;;;;;;7.57;3.22;;;12.60;99.90;;;;;;4997241;28;20087;-84
2024/03/25 12:40:10;;;;;;;6.82;3.17;;;12.70;99.90;;;;;;4963933;28;20085;-83
2024/03/25 12:42:37;;;;;;;7.65;3.22;;;12.70;99.90;;;;;;4963521;28;20475;-83
2024/03/25 12:45:03;;;;;;;6.57;3.10;;;12.70;99.90;;;;;;4963526;28;20363;-83
2024/03/25 12:47:31;;;;;;;7.55;2.95;;;12.70;99.90;;;;;;4979217;28;20540;-84
2024/03/25 12:49:57;;;;;;;8.95;3.38;;;12.70;99.90;;;;;;4979660;28;20033;-83
2024/03/25 12:52:22;;;;;;;7.30;3.45;;;12.80;99.90;;;;;;4979544;28;20383;-84
2024/03/25 12:54:48;;;;;;;7.55;3.17;;;12.80;99.90;;;;;;4975466;28;20062;-84
2024/03/25 12:57:14;;;;;;;6.40;2.58;;;12.90;99.90;;;;;;4975726;28;20026;-84
2024/03/25 12:59:40;;;;;;;7.03;2.80;;;13.00;99.90;;;;;;4975855;28;20528;-84